Terminal Aerodrome Forecast
Issued by NWS

Home | Current Version | Previous Version | Text Only | Print | Product List | Glossary On
Versions: 1 2 3 4 5 6 7 8 9 10 11 12 13 14 15 16 17 18 19 20 21 22
676
FTUS43 KIND 302012 AAA
TAFLAF
TAF AMD
KLAF 302012Z 3020/0118 18013KT P6SM -SHRA OVC035
     FM302300 16012KT P6SM VCTS OVC035CB WS020/19040KT
     FM010500 20013KT P6SM VCTS OVC030CB
     FM010600 21012KT P6SM OVC030
     FM011400 21016KT P6SM BKN030=

USA.gov is the U.S. government's official web portal to all federal, state and local government web resources and services.